KCDN/CDN METAR and TAF weather

Enter ICAO airport designator
Station Type Date Time Source
KCDN METAR 2019/10/21 02:15 UTC NOAA

KCDN 210215Z AUTO 00000KT 10SM CLR 16/15 A2996 RMK AO2


Station Type Date Time Source
KCDN Decoded METAR 2019/10/21 02:15 UTC NOAA

Station name not available
Oct 20, 2019 - 10:15 PM EDT / 2019.10.21 0215 UTC
Wind: Calm:0
Visibility: 10 mile(s):0
Sky conditions: clear
Temperature: 60 F (16 C)
Dew Point: 59 F (15 C)
Relative Humidity: 93%
Pressure (altimeter): 29.96 in. Hg (1014 hPa)
ob: KCDN 210215Z AUTO 00000KT 10SM CLR 16/15 A2996 RMK AO2
cycle: 2

Station Type Date Time Source
KCDN TAF UTC NOAA

Error!

Example: see airport list